Time;durP1;ratioP1;P1;durP2;ratioP2;P2;SDS_P1;SDS_P2;PMS_P1;PMS_P2;Temp;Humidity;BMP_temperature;BMP_pressure;BME280_temperature;BME280_humidity;BME280_pressure;Samples;Min_cycle;Max_cycle;Signal;HPM_P1;HPM_P2
2021/05/13 00:00:49;;;;;;;6.63;4.93;;;;;;;13.08;41.32;100563.81;3532045;40;20043;-74
2021/05/13 00:03:19;;;;;;;6.90;5.30;;;;;;;13.04;41.41;100560.50;3527100;40;20059;-74
2021/05/13 00:05:47;;;;;;;6.95;5.15;;;;;;;13.02;41.22;100565.28;3533068;40;20401;-74
2021/05/13 00:08:15;;;;;;;7.35;5.53;;;;;;;12.99;41.09;100565.63;3528565;40;20069;-74
2021/05/13 00:10:43;;;;;;;6.95;4.72;;;;;;;12.94;41.40;100564.34;3533735;40;20061;-74
2021/05/13 00:13:11;;;;;;;7.60;4.95;;;;;;;12.91;41.49;100561.88;3530908;40;20113;-74
2021/05/13 00:15:42;;;;;;;6.97;4.90;;;;;;;12.91;41.70;100561.88;3538944;40;20046;-74
2021/05/13 00:18:10;;;;;;;7.97;5.32;;;;;;;12.85;41.35;100557.00;3532893;40;20055;-74
2021/05/13 00:20:41;;;;;;;7.00;5.53;;;;;;;12.84;41.74;100550.66;3536386;40;20055;-74
2021/05/13 00:23:09;;;;;;;10.10;6.07;;;;;;;12.77;41.81;100549.53;3531768;40;20404;-74
2021/05/13 00:25:38;;;;;;;7.03;5.43;;;;;;;12.75;41.62;100540.63;3531144;40;20081;-74
2021/05/13 00:28:06;;;;;;;8.18;5.65;;;;;;;12.71;41.68;100539.19;3538726;40;20051;-74
2021/05/13 00:30:34;;;;;;;7.63;5.55;;;;;;;12.69;41.60;100538.47;3533903;40;20050;-74
2021/05/13 00:33:02;;;;;;;7.18;5.63;;;;;;;12.65;41.63;100532.44;3531485;40;20058;-74
2021/05/13 00:35:30;;;;;;;8.02;5.68;;;;;;;12.63;41.97;100525.38;3529700;40;20043;-74
2021/05/13 00:37:58;;;;;;;8.07;5.93;;;;;;;12.59;41.94;100533.06;3528708;40;20051;-75
2021/05/13 00:40:26;;;;;;;8.63;6.22;;;;;;;12.55;41.82;100528.88;3530729;40;20091;-74
2021/05/13 00:42:55;;;;;;;6.90;5.47;;;;;;;12.53;42.09;100532.78;3531188;40;20055;-74
2021/05/13 00:45:22;;;;;;;8.23;5.68;;;;;;;12.48;41.84;100536.00;3530597;40;20393;-74
2021/05/13 00:48:03;;;;;;;8.80;5.57;;;;;;;12.47;42.11;100538.88;3537874;40;20051;-74
2021/05/13 00:50:32;;;;;;;7.47;5.20;;;;;;;12.45;41.96;100532.69;3534448;40;20144;-74
2021/05/13 00:53:05;;;;;;;7.43;5.50;;;;;;;12.45;42.52;100532.69;3532611;40;20063;-74
2021/05/13 00:55:33;;;;;;;7.00;5.50;;;;;;;12.39;41.77;100537.78;3532774;40;20376;-74
2021/05/13 00:58:02;;;;;;;6.95;5.15;;;;;;;12.39;41.98;100540.50;3528468;40;20046;-74
2021/05/13 01:00:38;;;;;;;7.32;5.40;;;;;;;12.35;41.75;100536.34;3533450;40;20388;-74
2021/05/13 01:03:06;;;;;;;7.68;5.70;;;;;;;12.34;41.79;100537.38;3533053;40;20206;-74
2021/05/13 01:05:37;;;;;;;8.15;5.65;;;;;;;12.33;42.16;100534.78;3535206;40;20059;-74
2021/05/13 01:08:06;;;;;;;8.00;5.57;;;;;;;12.30;42.10;100541.41;3530713;40;20080;-74
2021/05/13 01:10:36;;;;;;;7.00;5.18;;;;;;;12.27;42.09;100549.06;3535392;40;20301;-74
2021/05/13 01:13:08;;;;;;;8.38;5.93;;;;;;;12.26;42.31;100539.16;3533944;40;20055;-74
2021/05/13 01:15:40;;;;;;;8.20;6.38;;;;;;;12.23;41.91;100533.94;3531366;40;20324;-74
2021/05/13 01:18:14;;;;;;;7.60;5.47;;;;;;;12.21;41.95;100530.50;3532028;40;20102;-74
2021/05/13 01:20:42;;;;;;;8.85;6.10;;;;;;;12.18;41.82;100523.47;3534445;40;20038;-74
2021/05/13 01:23:13;;;;;;;7.25;5.70;;;;;;;12.17;42.15;100529.09;3530344;40;20341;-74
2021/05/13 01:25:47;;;;;;;9.23;6.65;;;;;;;12.17;42.64;100521.72;3534867;40;20062;-74
2021/05/13 01:28:15;;;;;;;8.38;6.30;;;;;;;12.11;42.31;100524.19;3530747;40;20059;-74
2021/05/13 01:30:44;;;;;;;9.45;6.22;;;;;;;12.09;42.27;100521.63;3536027;40;20054;-74
2021/05/13 01:33:13;;;;;;;8.90;6.30;;;;;;;12.05;41.94;100517.44;3532753;40;20051;-74
2021/05/13 01:35:41;;;;;;;9.27;6.70;;;;;;;12.02;42.29;100517.72;3531859;40;20055;-75
2021/05/13 01:38:12;;;;;;;8.07;5.88;;;;;;;12.01;42.32;100519.63;3529589;40;20047;-74
2021/05/13 01:40:40;;;;;;;8.45;6.57;;;;;;;11.98;42.33;100524.53;3535124;40;20050;-74
2021/05/13 01:43:08;;;;;;;7.25;6.28;;;;;;;11.96;42.24;100519.19;3530357;40;20054;-74
2021/05/13 01:45:36;;;;;;;7.60;6.00;;;;;;;11.94;42.14;100517.59;3535898;40;20035;-74
2021/05/13 01:48:05;;;;;;;7.18;5.15;;;;;;;11.94;42.32;100512.97;3529019;40;20138;-74
2021/05/13 01:50:35;;;;;;;7.60;5.80;;;;;;;11.93;42.24;100513.16;3543637;40;20067;-75
2021/05/13 01:53:06;;;;;;;8.85;6.20;;;;;;;11.93;42.53;100514.03;3533674;40;20313;-74
2021/05/13 01:55:35;;;;;;;8.18;5.72;;;;;;;11.91;42.45;100520.66;3534870;40;20066;-74
2021/05/13 01:58:04;;;;;;;9.05;5.85;;;;;;;11.89;42.13;100512.56;3530109;40;20046;-79
2021/05/13 02:00:33;;;;;;;8.70;6.07;;;;;;;11.88;42.10;100507.22;3536948;40;20058;-77
2021/05/13 02:03:00;;;;;;;8.75;6.47;;;;;;;11.85;42.15;100500.19;3535873;40;20054;-75
2021/05/13 02:05:28;;;;;;;8.00;5.72;;;;;;;11.84;42.22;100501.19;3531706;40;20059;-74
2021/05/13 02:07:56;;;;;;;8.73;6.30;;;;;;;11.83;42.50;100507.69;3530255;40;20492;-75
2021/05/13 02:10:24;;;;;;;9.13;6.45;;;;;;;11.82;42.40;100508.69;3531663;40;20544;-75
2021/05/13 02:12:56;;;;;;;8.00;6.72;;;;;;;11.80;42.43;100498.88;3534319;40;20417;-75
2021/05/13 02:15:24;;;;;;;8.38;6.53;;;;;;;11.75;42.10;100499.34;3534839;40;20059;-74
2021/05/13 02:17:54;;;;;;;8.30;5.72;;;;;;;11.71;42.69;100497.88;3529205;40;20055;-74
2021/05/13 02:20:24;;;;;;;9.20;6.30;;;;;;;11.68;42.51;100494.59;3531319;40;20391;-74
2021/05/13 02:22:54;;;;;;;7.85;6.00;;;;;;;11.63;42.59;100492.28;3538614;40;20055;-74
2021/05/13 02:25:22;;;;;;;9.20;6.78;;;;;;;11.59;42.71;100486.25;3529443;40;20105;-74
2021/05/13 02:27:50;;;;;;;9.00;6.57;;;;;;;11.55;42.71;100483.94;3531404;40;20316;-74
2021/05/13 02:30:19;;;;;;;8.68;6.50;;;;;;;11.53;42.86;100480.47;3538612;40;20051;-75
2021/05/13 02:32:47;;;;;;;10.23;6.80;;;;;;;11.48;42.60;100482.81;3534493;40;20059;-74
2021/05/13 02:35:16;;;;;;;9.65;6.72;;;;;;;11.45;43.00;100488.56;3528578;40;20062;-74
2021/05/13 02:37:45;;;;;;;9.85;7.00;;;;;;;11.42;42.98;100484.28;3529566;40;20354;-74
2021/05/13 02:40:14;;;;;;;8.63;6.30;;;;;;;11.40;42.97;100469.84;3538901;40;20067;-74
2021/05/13 02:42:42;;;;;;;9.60;6.78;;;;;;;11.35;43.06;100477.66;3533762;40;20133;-74
2021/05/13 02:45:12;;;;;;;9.25;6.95;;;;;;;11.33;42.67;100473.34;3529307;40;20091;-74
2021/05/13 02:47:41;;;;;;;8.57;6.50;;;;;;;11.31;43.24;100473.47;3532971;40;20327;-74
2021/05/13 02:50:11;;;;;;;7.72;5.80;;;;;;;11.29;43.24;100465.41;3536190;40;20100;-75
2021/05/13 02:52:39;;;;;;;9.18;6.47;;;;;;;11.25;43.01;100460.38;3532533;40;20059;-74
2021/05/13 02:55:08;;;;;;;8.95;6.28;;;;;;;11.25;43.01;100466.72;3531576;40;20069;-74
2021/05/13 02:57:37;;;;;;;7.85;6.43;;;;;;;11.24;43.21;100467.72;3528802;40;20058;-75
2021/05/13 03:00:28;;;;;;;8.52;6.47;;;;;;;11.25;43.12;100468.59;3529435;40;20090;-74
2021/05/13 03:02:58;;;;;;;8.75;6.07;;;;;;;11.21;43.26;100465.28;3533560;40;20054;-74
2021/05/13 03:05:27;;;;;;;9.20;7.05;;;;;;;11.19;43.21;100469.19;3528657;40;20297;-74
2021/05/13 03:07:57;;;;;;;9.00;6.43;;;;;;;11.20;43.22;100476.34;3527047;40;20070;-74
2021/05/13 03:10:32;;;;;;;9.30;6.40;;;;;;;11.16;43.07;100480.41;3541137;40;20066;-74
2021/05/13 03:13:00;;;;;;;8.38;6.45;;;;;;;11.14;43.18;100474.22;3533280;40;20333;-74
2021/05/13 03:15:29;;;;;;;9.80;6.63;;;;;;;11.11;43.38;100472.63;3533340;40;20393;-74
2021/05/13 03:17:57;;;;;;;8.32;6.30;;;;;;;11.12;43.32;100484.44;3529086;40;20062;-74
2021/05/13 03:20:29;;;;;;;9.73;7.35;;;;;;;11.10;43.33;100490.09;3530478;40;20047;-74
2021/05/13 03:22:58;;;;;;;9.93;7.25;;;;;;;11.07;43.34;100484.88;3530030;40;20087;-74
2021/05/13 03:25:29;;;;;;;9.63;7.20;;;;;;;11.07;43.03;100486.75;3530871;40;20401;-74
2021/05/13 03:28:07;;;;;;;9.25;7.10;;;;;;;11.05;43.09;100489.63;3530864;40;21310;-74
2021/05/13 03:30:37;;;;;;;8.85;6.75;;;;;;;11.05;43.40;100481.41;3531317;40;20090;-74
2021/05/13 03:33:05;;;;;;;8.88;6.55;;;;;;;11.04;43.22;100476.09;3532335;40;20065;-74
2021/05/13 03:35:34;;;;;;;9.65;6.75;;;;;;;11.02;43.24;100473.53;3532222;40;20058;-74
2021/05/13 03:38:03;;;;;;;10.20;6.95;;;;;;;11.01;43.32;100474.53;3527870;40;20067;-74
2021/05/13 03:40:32;;;;;;;10.38;7.28;;;;;;;10.98;43.44;100473.94;3532885;40;20062;-74
2021/05/13 03:43:00;;;;;;;9.10;6.88;;;;;;;10.96;43.01;100465.88;3530420;40;20051;-74
2021/05/13 03:45:28;;;;;;;11.13;7.45;;;;;;;10.94;43.21;100478.84;3531527;40;20093;-74
2021/05/13 03:47:56;;;;;;;9.52;6.80;;;;;;;10.90;43.57;100475.53;3531201;40;20452;-74
2021/05/13 03:50:24;;;;;;;9.75;6.90;;;;;;;10.89;43.50;100468.31;3523330;40;20063;-74
2021/05/13 03:52:52;;;;;;;8.75;6.50;;;;;;;10.87;43.46;100464.84;3529834;40;20412;-74
2021/05/13 03:55:20;;;;;;;9.25;7.07;;;;;;;10.83;43.24;100457.97;3530935;40;20053;-74
2021/05/13 03:57:49;;;;;;;8.70;6.25;;;;;;;10.85;43.50;100455.94;3533274;40;20070;-75
2021/05/13 04:00:19;;;;;;;11.13;7.53;;;;;;;10.81;43.45;100454.47;3531609;40;20114;-74
2021/05/13 04:02:46;;;;;;;10.43;6.90;;;;;;;10.80;43.40;100455.47;3533670;40;20063;-74
2021/05/13 04:05:14;;;;;;;9.38;6.88;;;;;;;10.79;43.45;100461.06;3524888;40;20396;-75
2021/05/13 04:07:44;;;;;;;10.00;7.38;;;;;;;10.79;43.53;100455.59;3528987;40;20055;-74
2021/05/13 04:10:12;;;;;;;11.80;8.00;;;;;;;10.76;43.42;100459.50;3531899;40;20729;-74
2021/05/13 04:12:41;;;;;;;8.18;6.07;;;;;;;10.76;43.63;100454.03;3535650;40;20066;-74
2021/05/13 04:15:28;;;;;;;8.50;6.40;;;;;;;10.73;43.57;100448.84;3535304;40;20051;-74
2021/05/13 04:18:16;;;;;;;10.35;6.65;;;;;;;10.72;43.68;100449.84;3534004;40;20061;-74
2021/05/13 04:20:44;;;;;;;9.18;6.78;;;;;;;10.71;43.38;100445.38;3530947;40;20055;-74
2021/05/13 04:23:13;;;;;;;8.45;6.18;;;;;;;10.72;43.42;100438.91;3536028;40;20051;-74
2021/05/13 04:25:41;;;;;;;9.60;7.40;;;;;;;10.70;43.39;100440.06;3531230;40;20356;-74
2021/05/13 04:28:09;;;;;;;8.57;6.35;;;;;;;10.69;43.62;100433.75;3533410;40;20059;-74
2021/05/13 04:30:36;;;;;;;8.40;6.28;;;;;;;10.70;43.68;100440.91;3532438;40;20067;-74
2021/05/13 04:33:04;;;;;;;8.48;6.90;;;;;;;10.70;43.84;100442.81;3527468;40;20062;-74
2021/05/13 04:35:32;;;;;;;7.60;5.72;;;;;;;10.70;43.70;100440.91;3525195;40;20060;-74
2021/05/13 04:38:00;;;;;;;9.75;6.68;;;;;;;10.71;44.04;100434.44;3535071;40;20130;-74
2021/05/13 04:40:29;;;;;;;8.57;6.68;;;;;;;10.73;43.87;100443.38;3534036;40;20290;-74
2021/05/13 04:42:57;;;;;;;9.40;6.60;;;;;;;10.74;43.86;100439.63;3532443;40;20070;-74
2021/05/13 04:45:25;;;;;;;9.15;6.82;;;;;;;10.76;44.01;100442.22;3530595;40;20130;-74
2021/05/13 04:50:35;;;;;;;7.95;5.97;;;;;;;10.79;44.05;100437.31;3532009;40;20083;-74
2021/05/13 04:53:08;;;;;;;9.57;5.90;;;;;;;10.83;44.15;100436.06;3526575;40;20415;-74
2021/05/13 04:55:38;;;;;;;8.38;5.97;;;;;;;10.86;44.29;100432.19;3528792;40;20082;-74
2021/05/13 04:58:07;;;;;;;7.82;6.10;;;;;;;10.91;44.38;100435.34;3527764;40;20051;-74
2021/05/13 05:00:35;;;;;;;7.30;5.60;;;;;;;10.99;44.74;100434.63;3530100;40;20055;-74
2021/05/13 05:03:05;;;;;;;8.35;6.28;;;;;;;11.13;45.49;100435.03;3534302;40;20424;-74
2021/05/13 05:05:34;;;;;;;8.35;6.60;;;;;;;11.36;46.11;100432.81;3529654;40;20344;-74
2021/05/13 05:08:02;;;;;;;9.32;6.70;;;;;;;11.72;47.03;100436.59;3527301;40;20137;-74
2021/05/13 05:10:30;;;;;;;8.60;5.72;;;;;;;12.19;47.71;100437.41;3531368;40;20142;-74
2021/05/13 05:12:58;;;;;;;8.05;5.80;;;;;;;12.73;47.72;100430.13;3532588;40;20063;-75
2021/05/13 05:15:26;;;;;;;6.97;5.43;;;;;;;13.35;47.96;100422.75;3529363;40;20050;-75
2021/05/13 05:17:54;;;;;;;7.65;5.85;;;;;;;14.03;47.24;100418.19;3535321;40;20315;-74
2021/05/13 05:20:21;;;;;;;7.45;5.65;;;;;;;14.73;46.51;100412.38;3525889;40;20363;-74
2021/05/13 05:22:49;;;;;;;5.95;4.95;;;;;;;15.38;45.50;100410.50;3534251;40;20039;-74
2021/05/13 05:25:17;;;;;;;6.85;5.57;;;;;;;15.96;44.51;100410.22;3530926;40;20360;-74
2021/05/13 05:27:48;;;;;;;6.90;5.18;;;;;;;16.49;42.85;100417.72;3528672;40;20065;-75
2021/05/13 05:30:18;;;;;;;6.93;4.90;;;;;;;16.93;40.95;100412.41;3526081;40;20053;-75
2021/05/13 05:32:58;;;;;;;6.10;5.05;;;;;;;17.26;39.17;100401.09;3531782;40;20065;-75
2021/05/13 05:35:28;;;;;;;6.47;5.10;;;;;;;17.43;39.36;100407.34;3530732;40;20047;-75
2021/05/13 05:37:56;;;;;;;6.38;5.07;;;;;;;17.59;38.72;100407.19;3527935;40;20178;-75
2021/05/13 05:40:28;;;;;;;6.55;5.07;;;;;;;17.61;38.05;100410.63;3536067;40;20043;-74
2021/05/13 05:42:57;;;;;;;6.72;5.03;;;;;;;17.64;37.79;100410.22;3544419;40;20347;-74
2021/05/13 05:45:26;;;;;;;7.47;5.57;;;;;;;17.65;37.68;100409.19;3531427;40;20047;-74
2021/05/13 05:47:59;;;;;;;7.22;5.40;;;;;;;17.59;37.18;100416.34;3534431;40;20279;-74
2021/05/13 05:50:28;;;;;;;7.53;5.57;;;;;;;17.51;37.23;100410.91;3531036;40;20051;-74
2021/05/13 05:52:57;;;;;;;6.40;5.07;;;;;;;17.40;36.97;100404.94;3528864;40;20059;-74
2021/05/13 05:55:24;;;;;;;6.10;4.78;;;;;;;17.29;36.82;100406.25;3529347;40;20061;-74
2021/05/13 05:57:52;;;;;;;7.40;5.05;;;;;;;17.20;37.80;100393.56;3527454;40;20421;-74
2021/05/13 06:00:21;;;;;;;6.53;4.68;;;;;;;17.15;37.44;100412.56;3526327;40;20078;-74
2021/05/13 06:02:50;;;;;;;6.97;5.18;;;;;;;17.15;38.21;100404.28;3533336;40;20046;-75
2021/05/13 06:05:18;;;;;;;6.30;4.97;;;;;;;17.27;38.66;100411.13;3533381;40;20437;-73
2021/05/13 06:07:46;;;;;;;6.38;4.65;;;;;;;17.57;39.47;100407.38;3529249;40;20320;-73
2021/05/13 06:10:15;;;;;;;6.68;4.80;;;;;;;17.99;39.52;100409.47;3528149;40;20063;-73
2021/05/13 06:12:43;;;;;;;6.32;5.10;;;;;;;18.48;40.07;100410.75;3530552;40;20087;-73
2021/05/13 06:15:13;;;;;;;6.18;5.05;;;;;;;19.10;40.09;100411.06;3532760;40;20062;-72
2021/05/13 06:17:41;;;;;;;7.13;5.00;;;;;;;19.79;39.72;100409.28;3535174;40;20081;-74
2021/05/13 06:20:18;;;;;;;6.50;5.05;;;;;;;20.65;36.68;100407.81;3539446;40;20149;-73
2021/05/13 06:22:46;;;;;;;5.65;4.55;;;;;;;21.46;38.45;100413.28;3531020;40;20067;-74
2021/05/13 06:25:14;;;;;;;5.07;4.53;;;;;;;22.33;37.09;100398.13;3529864;40;20093;-74
2021/05/13 06:27:43;;;;;;;5.30;4.68;;;;;;;23.17;36.11;100395.09;3534337;40;21226;-74
2021/05/13 06:30:13;;;;;;;5.68;4.53;;;;;;;24.04;34.92;100397.72;3530506;40;20055;-74
2021/05/13 06:32:42;;;;;;;5.80;4.72;;;;;;;24.88;33.83;100398.84;3535993;40;20088;-75
2021/05/13 06:35:11;;;;;;;6.10;5.10;;;;;;;25.68;32.29;100396.50;3531882;40;20035;-75
2021/05/13 06:37:39;;;;;;;5.15;4.45;;;;;;;26.41;31.32;100389.50;3530345;40;20063;-75
2021/05/13 06:40:08;;;;;;;5.07;4.57;;;;;;;27.07;30.00;100396.47;3535970;40;20091;-75
2021/05/13 06:42:37;;;;;;;6.53;4.43;;;;;;;27.66;28.81;100401.47;3528960;40;20058;-75
2021/05/13 06:45:05;;;;;;;4.85;4.00;;;;;;;28.18;28.00;100401.97;3526517;40;20079;-74
2021/05/13 06:47:34;;;;;;;5.03;3.70;;;;;;;28.54;26.68;100394.03;3532314;40;20047;-75
2021/05/13 06:50:03;;;;;;;4.57;2.97;;;;;;;28.75;25.87;100389.50;3535545;40;20051;-74
2021/05/13 06:52:30;;;;;;;5.30;3.78;;;;;;;28.77;25.62;100390.94;3530000;40;20055;-74
2021/05/13 06:54:59;;;;;;;4.75;3.22;;;;;;;28.70;24.76;100390.31;3530241;40;20328;-74
2021/05/13 06:57:28;;;;;;;4.85;3.35;;;;;;;28.51;24.71;100386.97;3531523;40;20055;-75
2021/05/13 06:59:56;;;;;;;4.30;3.60;;;;;;;28.28;24.28;100391.97;3526422;40;20043;-74
2021/05/13 07:02:25;;;;;;;4.28;3.13;;;;;;;28.01;24.04;100389.06;3529860;40;20401;-74
2021/05/13 07:04:53;;;;;;;4.95;3.60;;;;;;;27.70;23.89;100391.41;3531988;40;20054;-74
2021/05/13 07:07:28;;;;;;;4.10;3.00;;;;;;;27.39;23.78;100392.84;3529308;40;20130;-74
2021/05/13 07:09:56;;;;;;;4.32;3.17;;;;;;;27.12;23.80;100388.97;3526449;40;20048;-74
2021/05/13 07:12:24;;;;;;;3.90;2.90;;;;;;;26.85;23.93;100385.03;3529028;40;20570;-74
2021/05/13 07:14:52;;;;;;;4.50;3.42;;;;;;;26.54;24.10;100387.25;3533740;40;20051;-74
2021/05/13 07:17:20;;;;;;;4.72;3.60;;;;;;;26.27;24.10;100384.13;3529854;40;20080;-74
2021/05/13 07:19:47;;;;;;;4.38;3.33;;;;;;;26.01;23.95;100383.84;3533288;40;20075;-75
2021/05/13 07:22:17;;;;;;;3.85;3.25;;;;;;;25.75;24.36;100380.41;3529231;40;20305;-74
2021/05/13 07:24:48;;;;;;;4.88;3.40;;;;;;;25.49;24.33;100386.50;3531337;40;20059;-75
2021/05/13 07:27:16;;;;;;;4.45;3.38;;;;;;;25.25;24.55;100379.16;3529003;40;20055;-75
2021/05/13 07:29:45;;;;;;;7.05;3.90;;;;;;;25.01;24.56;100375.41;3526651;40;20058;-75
2021/05/13 07:32:13;;;;;;;5.68;3.72;;;;;;;24.75;24.90;100373.88;3534533;40;20166;-74
2021/05/13 07:34:41;;;;;;;4.70;3.53;;;;;;;24.53;25.05;100375.47;3531670;40;20059;-75
2021/05/13 07:37:09;;;;;;;4.97;3.33;;;;;;;24.31;25.18;100380.69;3530859;40;20413;-74
2021/05/13 07:39:37;;;;;;;4.70;3.78;;;;;;;24.11;25.32;100374.50;3527105;40;20369;-74
2021/05/13 07:42:05;;;;;;;5.28;3.67;;;;;;;23.93;25.69;100372.50;3526765;40;20087;-75
2021/05/13 07:44:33;;;;;;;5.15;4.03;;;;;;;23.75;25.65;100369.69;3532783;40;20359;-74
2021/05/13 07:47:02;;;;;;;5.30;3.85;;;;;;;23.60;26.03;100370.94;3531518;40;20062;-75
2021/05/13 07:49:30;;;;;;;5.25;3.90;;;;;;;23.42;26.04;100368.06;3533559;40;20071;-75
2021/05/13 07:51:58;;;;;;;6.53;4.32;;;;;;;23.27;26.19;100365.63;3528554;40;20395;-74
2021/05/13 07:54:26;;;;;;;4.90;3.97;;;;;;;23.12;26.78;100365.09;3534798;40;20097;-74
2021/05/13 07:56:54;;;;;;;5.38;4.20;;;;;;;23.00;26.37;100363.25;3528924;40;20058;-75
2021/05/13 07:59:23;;;;;;;5.30;4.10;;;;;;;22.85;26.55;100356.06;3530670;40;20530;-74
2021/05/13 08:06:45;;;;;;;5.22;3.83;;;;;;;22.49;27.29;100361.41;3502259;40;20377;-75
2021/05/13 08:10:29;;;;;;;;;;;;;;;;;;;;;
2021/05/13 08:13:24;;;;;;;5.05;3.95;;;;;;;22.21;27.56;100355.34;3496795;40;20169;-74
2021/05/13 08:16:45;;;;;;;4.97;3.90;;;;;;;22.17;27.26;100352.94;3509397;40;20043;-73
2021/05/13 08:32:00;;;;;;;4.72;2.83;;;;;;;21.75;27.06;100339.59;3474086;41;20440;-72
2021/05/13 08:34:27;;;;;;;5.38;3.47;;;;;;;21.71;27.84;100333.63;3476272;41;20049;-73
2021/05/13 08:36:57;;;;;;;5.82;3.28;;;;;;;21.72;27.34;100337.28;3478600;41;20065;-74
2021/05/13 08:39:26;;;;;;;4.25;3.13;;;;;;;21.67;27.29;100349.03;3478581;41;20125;-73
2021/05/13 08:41:54;;;;;;;3.55;2.63;;;;;;;21.65;27.39;100345.66;3488192;41;20052;-74
2021/05/13 08:44:22;;;;;;;4.13;2.67;;;;;;;21.65;27.32;100350.34;3500725;41;20469;-74
2021/05/13 08:46:50;;;;;;;4.22;2.75;;;;;;;21.62;27.09;100345.22;3497748;41;20117;-73
2021/05/13 08:49:19;;;;;;;4.65;2.55;;;;;;;21.61;27.38;100340.72;3495884;41;20148;-73
2021/05/13 08:51:48;;;;;;;4.00;2.60;;;;;;;21.60;27.10;100345.44;3497703;41;20052;-74
2021/05/13 08:54:17;;;;;;;4.50;2.95;;;;;;;21.63;27.46;100345.00;3502299;41;20084;-74
2021/05/13 08:56:47;;;;;;;4.57;2.92;;;;;;;21.62;27.33;100334.09;3503625;41;20059;-73
2021/05/13 08:59:15;;;;;;;3.80;2.75;;;;;;;21.64;27.14;100331.94;3498243;41;20052;-73
2021/05/13 09:01:58;;;;;;;4.38;2.95;;;;;;;21.66;26.45;100332.56;3488208;41;20075;-75
2021/05/13 09:04:37;;;;;;;;;;;;;;;21.32;27.78;100326.19;3482374;41;20037;-74
2021/05/13 09:07:17;;;;;;;3.30;2.22;;;;;;;21.63;26.44;100322.72;3504551;40;19933;-74
2021/05/13 09:10:05;;;;;;;4.47;2.78;;;;;;;21.64;26.10;100320.81;3519956;40;20055;-74
2021/05/13 09:12:36;;;;;;;4.03;2.03;;;;;;;21.66;26.22;100321.41;3521422;40;20093;-74
2021/05/13 09:15:07;;;;;;;4.35;2.35;;;;;;;21.70;26.32;100314.34;3531762;40;20062;-75
2021/05/13 09:17:36;;;;;;;3.15;1.80;;;;;;;21.68;26.08;100309.00;3532836;40;20059;-75
2021/05/13 09:20:21;;;;;;;2.83;1.45;;;;;;;21.72;26.12;100307.50;3526807;40;20054;-75
2021/05/13 09:22:49;;;;;;;3.65;1.85;;;;;;;21.71;25.72;100308.56;3531479;40;20073;-75
2021/05/13 09:25:18;;;;;;;3.40;2.00;;;;;;;21.74;26.10;100307.25;3533918;40;20062;-74
2021/05/13 09:27:49;;;;;;;2.97;1.80;;;;;;;21.75;25.74;100304.28;3530060;40;20047;-75
2021/05/13 09:30:21;;;;;;;2.65;1.35;;;;;;;21.77;25.48;100306.84;3531255;40;20061;-75
2021/05/13 09:32:51;;;;;;;3.50;1.90;;;;;;;21.77;26.05;100296.56;3531265;40;20069;-75
2021/05/13 09:35:21;;;;;;;3.50;1.70;;;;;;;21.82;25.50;100293.09;3533423;40;20055;-76
2021/05/13 09:37:50;;;;;;;3.17;1.60;;;;;;;21.85;25.88;100289.88;3528769;40;20148;-76
2021/05/13 09:40:21;;;;;;;3.85;1.80;;;;;;;21.90;25.30;100289.25;3531277;40;20067;-75
2021/05/13 09:43:09;;;;;;;3.53;1.87;;;;;;;21.90;25.57;100292.88;3534063;40;20090;-75
2021/05/13 09:45:44;;;;;;;3.92;2.08;;;;;;;21.99;25.25;100293.47;3527516;40;20635;-76
2021/05/13 09:48:31;;;;;;;3.03;1.60;;;;;;;21.99;25.79;100294.31;3532260;40;20059;-75
2021/05/13 09:51:14;;;;;;;2.50;1.73;;;;;;;22.06;25.00;100295.16;3533748;40;20047;-76
2021/05/13 09:53:43;;;;;;;3.13;1.92;;;;;;;22.09;24.94;100288.28;3532733;40;20072;-75
2021/05/13 09:56:33;;;;;;;3.33;1.95;;;;;;;22.15;24.80;100291.03;3530021;40;20067;-75
2021/05/13 09:59:21;;;;;;;3.40;2.00;;;;;;;22.18;24.78;100290.59;3527617;40;20039;-75
2021/05/13 10:01:51;;;;;;;3.67;1.98;;;;;;;22.25;25.21;100286.94;3528554;40;20404;-75
2021/05/13 10:04:19;;;;;;;4.43;2.10;;;;;;;22.31;25.21;100284.16;3530202;40;20043;-75
2021/05/13 10:06:48;;;;;;;3.78;2.10;;;;;;;22.36;25.10;100287.09;3529210;40;20385;-75
2021/05/13 10:09:17;;;;;;;3.25;1.95;;;;;;;22.42;24.63;100282.56;3526779;40;20055;-75
2021/05/13 10:11:50;;;;;;;3.00;1.80;;;;;;;22.47;24.32;100286.41;3529454;40;20414;-75
2021/05/13 10:14:19;;;;;;;;;;;;;;;22.18;25.15;100278.59;3533600;40;20054;-76
2021/05/13 10:16:48;;;;;;;3.67;1.67;;;;;;;22.51;24.55;100270.91;3532706;40;19950;-76
2021/05/13 10:19:22;;;;;;;3.50;1.90;;;;;;;22.64;24.18;100283.06;3526323;40;20054;-76
2021/05/13 10:21:52;;;;;;;4.32;2.03;;;;;;;22.65;24.11;100271.66;3532560;40;20051;-75
2021/05/13 10:24:20;;;;;;;3.40;1.90;;;;;;;22.69;24.14;100263.72;3532922;40;20086;-75
2021/05/13 10:26:50;;;;;;;2.90;1.85;;;;;;;22.74;24.04;100267.53;3532186;40;20058;-75
2021/05/13 10:29:35;;;;;;;3.97;1.90;;;;;;;22.79;23.77;100262.13;3529815;40;20071;-75
2021/05/13 10:32:11;;;;;;;3.78;2.10;;;;;;;22.81;24.07;100259.94;3531983;40;20086;-75
2021/05/13 10:34:50;;;;;;;4.22;2.20;;;;;;;22.86;23.22;100259.31;3528931;40;20047;-76
2021/05/13 10:37:25;;;;;;;3.50;1.88;;;;;;;22.85;23.56;100255.69;3529170;40;20051;-75
2021/05/13 10:43:07;;;;;;;2.65;1.58;;;;;;;22.88;23.31;100249.66;3529398;40;20028;-75
2021/05/13 10:45:41;;;;;;;2.35;1.33;;;;;;;22.94;22.24;100250.66;3543180;40;20376;-75
2021/05/13 10:48:19;;;;;;;3.67;1.50;;;;;;;22.98;21.99;100245.47;3523220;40;20117;-74
2021/05/13 10:50:50;;;;;;;4.20;1.40;;;;;;;22.98;22.85;100246.31;3536606;40;20126;-75
2021/05/13 10:53:45;;;;;;;2.97;1.50;;;;;;;22.99;22.60;100245.25;3527737;40;20311;-75
2021/05/13 10:56:19;;;;;;;1.90;1.40;;;;;;;23.05;21.87;100235.97;3530407;40;20061;-75
2021/05/13 10:59:01;;;;;;;3.78;1.55;;;;;;;23.10;22.09;100236.13;3530288;40;20331;-75
2021/05/13 11:01:40;;;;;;;3.40;1.40;;;;;;;23.15;22.13;100229.84;3537577;40;20364;-74
2021/05/13 11:04:39;;;;;;;1.90;1.17;;;;;;;23.12;22.36;100231.19;3528906;40;20051;-75
2021/05/13 11:07:26;;;;;;;1.42;0.93;;;;;;;23.23;21.53;100229.53;3526206;40;20138;-75
2021/05/13 11:09:58;;;;;;;2.15;0.98;;;;;;;23.25;21.45;100221.81;3529830;40;20141;-75
2021/05/13 11:12:27;;;;;;;2.80;1.60;;;;;;;23.30;21.84;100233.97;3528266;40;20673;-75
2021/05/13 11:15:14;;;;;;;3.22;1.70;;;;;;;23.38;21.54;100226.41;3529384;40;20063;-75
2021/05/13 11:18:13;;;;;;;2.83;1.42;;;;;;;23.38;21.66;100232.00;3531387;40;20056;-75
2021/05/13 11:20:57;;;;;;;3.22;1.60;;;;;;;23.44;21.16;100223.53;3528934;40;20055;-75
2021/05/13 11:23:28;;;;;;;3.03;1.60;;;;;;;23.45;21.30;100216.88;3532679;40;20069;-75
2021/05/13 11:25:59;;;;;;;2.47;1.50;;;;;;;23.48;20.97;100216.41;3530789;40;20027;-75
2021/05/13 11:28:30;;;;;;;2.75;1.20;;;;;;;23.48;20.96;100219.22;3533793;40;20079;-75
2021/05/13 11:31:18;;;;;;;2.22;1.30;;;;;;;23.50;20.98;100218.97;3530105;40;20031;-75
2021/05/13 11:33:50;;;;;;;2.20;1.05;;;;;;;23.51;20.67;100218.75;3530991;40;20303;-75
2021/05/13 11:36:20;;;;;;;2.97;1.10;;;;;;;23.50;20.92;100214.25;3534891;40;20047;-74
2021/05/13 11:38:52;;;;;;;1.95;0.90;;;;;;;23.55;19.62;100217.19;3529967;40;20113;-75
2021/05/13 11:41:20;;;;;;;1.23;0.90;;;;;;;23.51;20.49;100213.16;3534355;40;20133;-75
2021/05/13 11:43:48;;;;;;;2.80;1.10;;;;;;;23.55;20.26;100211.59;3533505;40;20335;-75
2021/05/13 11:46:20;;;;;;;1.85;1.08;;;;;;;23.58;19.83;100211.16;3504767;40;20118;-75
2021/05/13 11:48:49;;;;;;;1.67;0.82;;;;;;;23.58;19.81;100199.13;3513093;40;20452;-74
2021/05/13 11:51:20;;;;;;;1.02;0.77;;;;;;;23.60;19.63;100203.41;3512190;40;20429;-75
2021/05/13 11:53:51;;;;;;;2.50;1.10;;;;;;;23.59;19.99;100201.69;3514337;40;20112;-75
2021/05/13 11:56:19;;;;;;;2.35;1.00;;;;;;;23.62;19.23;100198.44;3501429;40;21142;-75
2021/05/13 11:58:49;;;;;;;1.02;0.65;;;;;;;23.65;19.19;100195.16;3511111;40;20099;-75
2021/05/13 12:01:27;;;;;;;1.75;0.82;;;;;;;23.68;18.55;100182.69;3509209;40;20116;-75
2021/05/13 12:04:10;;;;;;;1.35;0.82;;;;;;;23.68;18.75;100183.53;3520211;40;20051;-75
2021/05/13 12:09:33;;;;;;;2.00;0.80;;;;;;;23.66;19.71;100170.88;3522412;40;20052;-75
2021/05/13 12:12:03;;;;;;;3.45;1.40;;;;;;;23.69;18.95;100178.81;3530522;40;20054;-75